ADDS METAR Data INFO
IDs: Format: Raw Decoded Include TAF

Data at: 0230 UTC 22 Jul 2017

KT65 220215Z AUTO 16010G17KT 10SM CLR 30/22 A2992 RMK AO2 T02960222
KT65 220155Z AUTO 16009KT 10SM CLR 30/22 A2992 RMK AO2 T03000222
KT65 220135Z AUTO 15011G17KT 10SM CLR 31/22 A2991 RMK AO2 T03060221
KT65 220115Z AUTO 15011G17KT 10SM CLR 31/22 A2991 RMK AO2 T03110217
KT65 220055Z AUTO 15010G21KT 10SM CLR 32/22 A2990 RMK AO2 T03170220
KT65 220035Z AUTO 16013G19KT 10SM CLR 33/21 A2990 RMK AO2 T03250209
KT65 220015Z AUTO 16013G19KT 10SM CLR 33/21 A2990 RMK AO2 T03330207
KT65 212355Z AUTO 17015G19KT 10SM CLR 34/21 A2989 RMK AO2 T03410212 10373 20340
KT65 212335Z AUTO 16012G18KT 10SM CLR 34/22 A2989 RMK AO2 T03440216
KT65 212315Z AUTO 16015G19KT 10SM SCT050 35/21 A2990 RMK AO2 T03490211
KT65 212255Z AUTO 15011G20KT 10SM SCT050 35/21 A2990 RMK AO2 T03540209
KT65 212235Z AUTO 17013G22KT 10SM SCT050 36/21 A2989 RMK AO2 T03550209
KT65 212215Z AUTO 18013G20KT 10SM CLR 35/21 A2990 RMK AO2 T03540207
KT65 212155Z AUTO 16016G22KT 10SM SCT060 36/21 A2990 RMK AO2 T03620209
KT65 212135Z AUTO 17014G20KT 10SM SCT060 37/21 A2991 RMK AO2 T03670206
KT65 212115Z AUTO 17013G22KT 10SM BKN060 36/21 A2992 RMK AO2 T03580206
KT65 212055Z AUTO 17012G22KT 10SM SCT060 37/20 A2992 RMK AO2 T03680200
KT65 212035Z AUTO 18012G21KT 10SM SCT060 37/20 A2994 RMK AO2 T03690197
KT65 212015Z AUTO 15015G21KT 10SM SCT060 37/20 A2994 RMK AO2 LTG DSNT SW T03680197
KT65 211955Z AUTO 14009G18KT 10SM CLR 36/20 A2995 RMK AO2 T03630198
KT65 211935Z AUTO 15014G19KT 10SM SCT050 37/21 A2996 RMK AO2 T03690207
KT65 211915Z AUTO 16013G20KT 10SM SCT050 SCT070 36/21 A2996 RMK AO2 T03640205
KT65 211855Z AUTO 18012KT 10SM BKN050 BKN070 36/21 A2997 RMK AO2 T03590211
KT65 211835Z AUTO 14010G16KT 100V160 10SM BKN055 36/21 A2997 RMK AO2 T03630212
KT65 211815Z AUTO 16013KT 150V210 10SM SCT049 36/21 A2998 RMK AO2 T03590210
KT65 211755Z AUTO 16010KT 10SM SCT049 36/21 A2998 RMK AO2 T03560206 10357 20255
KT65 211735Z AUTO 18013G17KT 10SM SCT049 36/21 A2999 RMK AO2 T03550213
KT65 211715Z AUTO 17011G16KT 10SM CLR 35/21 A2999 RMK AO2 T03510210
KT65 211655Z AUTO 16010G16KT 10SM CLR 35/21 A3000 RMK AO2 T03500211
KT65 211635Z AUTO 16011G17KT 10SM CLR 34/21 A3000 RMK AO2 T03390209
KT65 211615Z AUTO 16011G18KT 10SM CLR 34/21 A3000 RMK AO2 T03360212
KT65 211555Z AUTO 17013G17KT 10SM CLR 33/21 A3000 RMK AO2 T03310211
KT65 211535Z AUTO 18013G16KT 10SM CLR 33/21 A3001 RMK AO2 T03280208
KT65 211515Z AUTO 17011G15KT 7SM CLR 32/21 A3001 RMK AO2 T03240213
KT65 211455Z AUTO 18011G18KT 10SM CLR 31/22 A3000 RMK AO2 T03130215
KT65 211435Z AUTO 17012G17KT 10SM CLR 31/22 A3000 RMK AO2 T03060219
KT65 211415Z AUTO 18012G16KT 7SM CLR 30/22 A3000 RMK AO2 T02990223
KT65 211355Z AUTO 18010G14KT 10SM CLR 29/23 A2999 RMK AO2 T02910230
KT65 211335Z AUTO 19009KT 7SM CLR 28/24 A2999 RMK AO2 T02820235
KT65 211315Z AUTO 18009KT 7SM CLR 28/24 A2999 RMK AO2 T02760236
KT65 211255Z AUTO 17006KT 7SM CLR 27/24 A2998 RMK AO2 T02670238
KT65 211235Z AUTO 18007KT 10SM CLR 26/24 A2998 RMK AO2 T02610240
KT65 211215Z AUTO 16006KT 10SM CLR 26/24 A2997 RMK AO2 LTG DSNT SW T02570239
KT65 211155Z AUTO 18007KT 10SM CLR 26/24 A2997 RMK AO2 T02560238 10273 20255
KT65 211135Z AUTO 17007KT 10SM CLR 26/24 A2996 RMK AO2 T02550237
KT65 211115Z AUTO 17007KT 10SM CLR 26/24 A2996 RMK AO2 T02560237
KT65 211055Z AUTO 18007KT 10SM CLR 26/24 A2995 RMK AO2 T02570237
KT65 211035Z AUTO 17006KT 10SM CLR 26/24 A2995 RMK AO2 T02580237
KT65 211015Z AUTO 16005KT 10SM CLR 26/24 A2996 RMK AO2 T02600236
KT65 210955Z AUTO 18007KT 10SM CLR 26/24 A2996 RMK AO2 T02600238
KT65 210935Z AUTO 18008KT 10SM CLR 26/24 A2996 RMK AO2 T02600238
KT65 210915Z AUTO 18007KT 10SM CLR 26/24 A2996 RMK AO2 T02610238
KT65 210855Z AUTO 17007KT 10SM CLR 26/24 A2997 RMK AO2 T02620238
KT65 210835Z AUTO 17006KT 10SM CLR 27/24 A2998 RMK AO2 T02650238
KT65 210815Z AUTO 17007KT 10SM CLR 27/24 A2999 RMK AO2 T02650239
KT65 210755Z AUTO 18006KT 10SM CLR 27/24 A2999 RMK AO2 T02660240
KT65 210735Z AUTO 16006KT 10SM CLR 27/24 A3000 RMK AO2 T02670240
KT65 210715Z AUTO 17007KT 10SM CLR 27/24 A3000 RMK AO2 T02700241
KT65 210655Z AUTO 18008KT 10SM CLR 27/24 A3001 RMK AO2 T02700242
KT65 210635Z AUTO 17007KT 10SM CLR 27/24 A3002 RMK AO2 T02700242
KT65 210615Z AUTO 16007KT 10SM CLR 27/24 A3003 RMK AO2 T02710243
KT65 210555Z AUTO 16006KT 10SM CLR 27/24 A3003 RMK AO2 T02730243 10341 20273 403790256
KT65 210535Z AUTO 16006KT 10SM SCT016 28/24 A3004 RMK AO2 T02750243
KT65 210515Z AUTO 16008KT 10SM SCT016 28/24 A3004 RMK AO2 T02750242
KT65 210455Z AUTO 16008KT 10SM CLR 28/24 A3004 RMK AO2 T02750241
KT65 210435Z AUTO 16007KT 10SM CLR 28/24 A3003 RMK AO2 T02770238
KT65 210415Z AUTO 15008G14KT 10SM CLR 28/24 A3003 RMK AO2 T02800235
KT65 210355Z AUTO 16009KT 10SM CLR 28/24 A3002 RMK AO2 T02820235
KT65 210335Z AUTO 15008G16KT 7SM CLR 28/23 A3002 RMK AO2 T02840230
KT65 210315Z AUTO 16010G15KT 10SM CLR 29/23 A3000 RMK AO2 T02870226
KT65 210255Z AUTO 16010KT 7SM CLR 29/23 A2999 RMK AO2 T02900227
KT65 210235Z AUTO 16010KT 10SM CLR 29/22 A2999 RMK AO2 T02940222
KT65 210215Z AUTO 16015G19KT 10SM CLR 30/22 A2999 RMK AO2 T02970219
KT65 210155Z AUTO 16012G19KT 10SM CLR 30/22 A2998 RMK AO2 T03020215
KT65 210135Z AUTO 16013G19KT 10SM CLR 31/21 A2997 RMK AO2 T03070213
KT65 210115Z AUTO 16015G19KT 10SM CLR 32/21 A2997 RMK AO2 T03150210
KT65 210055Z AUTO 16015G19KT 10SM CLR 32/21 A2996 RMK AO2 T03230208
KT65 210035Z AUTO 15014G20KT 10SM CLR 33/21 A2996 RMK AO2 T03300205
KT65 210015Z AUTO 15013G18KT 10SM CLR 34/20 A2995 RMK AO2 T03370204
KT65 202355Z AUTO 16015G21KT 10SM CLR 34/20 A2995 RMK AO2 T03430203 10379 20343
KT65 202335Z AUTO 17013G17KT 10SM CLR 35/19 A2995 RMK AO2 T03500194
KT65 202315Z AUTO 15012G21KT 10SM CLR 35/19 A2996 RMK AO2 T03540188
KT65 202255Z AUTO 16015G19KT 10SM CLR 36/18 A2996 RMK AO2 T03580180
KT65 202235Z AUTO 16013G19KT 10SM CLR 36/19 A2996 RMK AO2 T03610193
KT65 202215Z AUTO 15011G21KT 10SM CLR 36/19 A2997 RMK AO2 T03640190
KT65 202155Z AUTO 17016G20KT 10SM CLR 37/20 A2998 RMK AO2 T03650195
KT65 202135Z AUTO 15014G20KT 10SM CLR 37/20 A2998 RMK AO2 T03690196
KT65 202115Z AUTO 17013G21KT 10SM CLR 37/19 A2999 RMK AO2 T03720190
KT65 202055Z AUTO 16013G18KT 10SM SCT070 38/19 A2999 RMK AO2 T03750188
KT65 202035Z AUTO 17010G18KT 7SM CLR 38/18 A3000 RMK AO2 T03770184
KT65 202015Z AUTO 17013G21KT 10SM CLR 38/19 A3001 RMK AO2 T03780194
KT65 201955Z AUTO 16009G23KT 10SM CLR 37/19 A3002 RMK AO2 T03730193
KT65 201935Z AUTO 16010G18KT 10SM SCT060 37/19 A3002 RMK AO2 T03720194
KT65 201915Z AUTO 17014G21KT 10SM SCT060 37/20 A3003 RMK AO2 T03740195
KT65 201855Z AUTO 17006G21KT 10SM CLR 37/20 A3004 RMK AO2 T03660198
KT65 201835Z AUTO 15013G16KT 10SM SCT055 37/21 A3004 RMK AO2 T03670206
KT65 201815Z AUTO 19008G17KT 10SM SCT049 SCT055 36/21 A3006 RMK AO2 T03630209
KT65 201755Z AUTO 17009G15KT 10SM SCT049 36/22 A3006 RMK AO2 T03590218 10360 20257
KT65 201735Z AUTO 18009G15KT 7SM CLR 35/22 A3007 RMK AO2 T03540218
KT65 201715Z AUTO 18005G17KT 7SM SCT039 35/22 A3008 RMK AO2 T03480220
KT65 201655Z AUTO 18010KT 10SM SCT039 34/23 A3009 RMK AO2 T03410227
KT65 201635Z AUTO 21010G17KT 150V210 10SM CLR 34/22 A3009 RMK AO2 T03360221
KT65 201615Z AUTO 18014G17KT 10SM CLR 33/22 A3010 RMK AO2 T03320218
KT65 201555Z AUTO 20011G15KT 7SM SCT030 33/23 A3010 RMK AO2 T03250227
KT65 201535Z AUTO 20011G17KT 10SM SCT028 32/23 A3010 RMK AO2 T03200229
KT65 201515Z AUTO 18012G18KT 7SM SCT026 32/23 A3010 RMK AO2 T03150232
KT65 201455Z AUTO 19013KT 10SM SCT021 31/23 A3010 RMK AO2 T03090233
KT65 201435Z AUTO 20011KT 7SM SCT021 30/24 A3010 RMK AO2 T03040236